Mesa Grande (220) Station Data

Red Flag Warning: No
Fire Weather Zone: 258
SDGE Region: Ramona
Lat/Lon: 33.168/-116.759

Observations

Time Wind Speed/Gust Temp(F) RH Fuel Moist Fuel Temp(F) Dewpt(F) Tmax(F) Tmin(F) Accum Precip 10-min Precip SL Press(mb)
5/28 5:00am 74 2 G 4 64° 8% - - 64.3° 54.8° - - -
5/28 4:50am 68 4 G 5 60° 10% - - 62.2° 54.8° - - -
5/28 4:40am 61 5 G 6 59° 13% - - 62.2° 54.8° - - -
5/28 4:30am 64 4 G 5 61° 13% - - 10° 62.2° 54.8° - - -
5/28 4:20am 63 4 G 4 59° 16% - - 13° 61° 54.8° - - -
5/28 4:10am 62 4 G 5 59° 21% - - 19° 61° 54.8° - - -
5/28 4:00am 57 3 G 4 59° 24% - - 23° 61° 54.8° - - -
5/28 3:50am 45 3 G 4 59° 26% - - 24° 61° 54.8° - - -
5/28 3:40am 49 3 G 4 58° 30% - - 26° 61° 54.8° - - -
5/28 3:30am 38 3 G 4 57° 35% - - 30° 61° 54.8° - - -
5/28 3:20am 44 4 G 5 56° 34% - - 28° 61° 54.8° - - -
5/28 3:10am 40 3 G 4 57° 34% - - 29° 61° 54.8° - - -
5/28 3:00am 43 3 G 5 56° 36% - - 29° 61° 54.8° - - -
5/28 2:50am 56 4 G 5 57° 37% - - 31° 61° 55.4° - - -
5/28 2:40am 60 3 G 4 58° 40% - - 33° 61° 55.4° - - -
5/28 2:30am 54 2 G 3 58° 42% - - 35° 61° 55.4° - - -
5/28 2:20am 57 2 G 3 58° 41% - - 34° 61° 55.4° - - -
5/28 2:10am 44 2 G 3 58° 40% - - 34° 61° 55.4° - - -
5/28 2:00am 39 2 G 3 59° 41% - - 35° 61° 55.4° - - -
5/28 1:50am 33 2 G 2 58° 42% - - 35° 61° 55.4° - - -
5/28 1:40am 30 2 G 3 58° 41% - - 34° 61° 55.4° - - -
5/28 1:30am 43 2 G 3 57° 39% - - 33° 61° 55.4° - - -
5/28 1:20am 49 3 G 4 57° 36% - - 30° 61° 55.4° - - -
5/28 1:10am 58 4 G 6 57° 37% - - 32° 61° 55.7° - - -
5/28 1:00am 53 5 G 6 57° 39% - - 32° 61° 55.9° - - -
5/28 12:50am 50 4 G 5 57° 37% - - 32° 61° 56.5° - - -
5/28 12:40am 59 3 G 4 58° 36% - - 31° 61° 57.2° - - -
5/28 12:30am 147 1 G 3 61° 42% - - 37° 61° 57.3° - - -
5/28 12:20am 62 3 G 5 59° 38% - - 33° 60.3° 57.3° - - -
5/28 12:10am 58 4 G 4 58° 40% - - 34° 59.7° 57.3° - - -
5/28 12:00am 47 2 G 4 59° 42% - - 36° 69.1° 44.7° - - -
5/27 11:50pm 53 3 G 4 59° 41% - - 35° 69.1° 44.7° - - -
5/27 11:40pm 60 3 G 4 60° 39% - - 35° 69.1° 44.7° - - -
5/27 11:30pm 58 4 G 5 59° 41% - - 35° 69.1° 44.7° - - -
5/27 11:20pm 45 2 G 4 59° 40% - - 35° 69.1° 44.7° - - -
5/27 11:10pm 53 3 G 4 59° 47% - - 38° 69.1° 44.7° - - -
5/27 11:00pm 44 3 G 4 58° 53% - - 41° 69.1° 44.7° - - -
5/27 10:50pm 163 1 G 2 59° 57% - - 44° 69.1° 44.7° - - -
5/27 10:40pm 75 2 G 2 59° 54% - - 42° 69.1° 44.7° - - -
5/27 10:30pm 68 3 G 3 59° 56% - - 43° 69.1° 44.7° - - -
5/27 10:20pm 61 3 G 5 57° 56% - - 41° 69.1° 44.7° - - -
5/27 10:10pm 65 2 G 3 58° 56% - - 42° 69.1° 44.7° - - -
5/27 10:00pm 44 1 G 3 57° 63% - - 44° 69.1° 44.7° - - -
5/27 9:50pm 49 4 G 5 55° 64% - - 43° 69.1° 44.7° - - -
5/27 9:40pm 3 3 G 5 54° 68% - - 43° 69.1° 44.7° - - -
5/27 9:30pm 23 3 G 4 54° 64% - - 42° 69.1° 44.7° - - -
5/27 9:20pm 52 4 G 5 54° 65% - - 42° 69.1° 44.7° - - -
5/27 9:10pm 62 3 G 4 55° 66% - - 44° 69.1° 44.7° - - -
5/27 9:00pm 56 4 G 5 56° 65% - - 44° 69.1° 44.7° - - -
5/27 8:50pm 56 3 G 4 55° 72% - - 47° 69.1° 44.7° - - -
5/27 8:40pm 45 2 G 3 55° 75% - - 48° 69.1° 44.7° - - -
5/27 8:30pm 46 1 G 3 56° 73% - - 48° 69.1° 44.7° - - -
5/27 8:20pm 64 2 G 3 57° 71% - - 48° 69.1° 44.7° - - -
5/27 8:10pm 50 3 G 4 58° 71% - - 48° 69.1° 44.7° - - -
5/27 8:00pm 60 3 G 4 58° 70% - - 49° 69.1° 44.7° - - -
5/27 7:50pm 184 1 G 2 59° 68% - - 48° 69.1° 44.7° - - -
5/27 7:40pm 192 2 G 3 60° 65% - - 49° 69.1° 44.7° - - -
5/27 7:30pm 205 2 G 3 62° 62% - - 49° 69.1° 44.7° - - -
5/27 7:20pm 192 1 G 2 62° 61% - - 49° 69.1° 44.7° - - -
5/27 7:10pm 212 2 G 3 63° 60% - - 49° 69.1° 44.7° - - -
5/27 7:00pm 203 2 G 3 63° 60% - - 48° 69.1° 44.7° - - -
5/27 6:50pm 201 3 G 5 63° 59% - - 48° 69.1° 44.7° - - -
5/27 6:40pm 210 3 G 4 63° 59% - - 48° 69.1° 44.7° - - -
5/27 6:30pm 203 4 G 6 63° 59% - - 48° 69.1° 44.7° - - -
5/27 6:20pm 205 4 G 7 63° 59% - - 48° 69.1° 44.7° - - -
5/27 6:10pm 210 5 G 8 63° 59% - - 48° 69.1° 44.7° - - -
5/27 6:00pm 198 5 G 8 64° 57% - - 48° 69.1° 44.7° - - -
5/27 5:50pm 202 6 G 8 64° 57% - - 48° 69.1° 44.7° - - -
5/27 5:40pm 203 5 G 9 65° 55% - - 48° 69.1° 44.7° - - -
5/27 5:30pm 206 5 G 8 65° 55% - - 49° 69.1° 44.7° - - -
5/27 5:20pm 187 6 G 10 65° 55% - - 49° 69.1° 44.7° - - -
5/27 5:10pm 203 5 G 9 65° 55% - - 49° 69.1° 44.7° - - -
5/27 5:00pm 199 6 G 11 65° 55% - - 49° 69.1° 44.7° - - -
5/27 4:50pm 199 7 G 11 65° 55% - - 49° 69.1° 44.7° - - -
5/27 4:40pm 199 8 G 12 66° 54% - - 49° 69.1° 44.7° - - -
5/27 4:30pm 199 8 G 13 66° 53% - - 49° 69.1° 44.7° - - -
5/27 4:20pm 196 9 G 13 66° 53% - - 49° 69.1° 44.7° - - -
5/27 4:10pm 197 9 G 13 67° 52% - - 49° 69.1° 44.7° - - -
5/27 4:00pm 206 8 G 12 67° 50% - - 48° 69.1° 44.7° - - -
5/27 3:50pm 200 8 G 13 67° 50% - - 48° 69.1° 44.7° - - -
5/27 3:40pm 194 8 G 12 68° 49% - - 48° 69.1° 44.7° - - -
5/27 3:30pm 193 10 G 15 68° 48% - - 47° 69.1° 44.7° - - -
5/27 3:20pm 198 8 G 14 68° 47% - - 47° 69.1° 44.7° - - -
5/27 3:10pm 221 7 G 14 68° 47% - - 47° 69.1° 44.7° - - -
5/27 3:00pm 216 8 G 12 68° 45% - - 46° 69.1° 44.7° - - -
5/27 2:50pm 211 7 G 13 68° 44% - - 45° 69.1° 44.7° - - -
5/27 2:40pm 211 6 G 13 68° 43% - - 45° 69° 44.7° - - -
5/27 2:30pm 198 7 G 12 68° 41% - - 44° 68.7° 44.7° - - -
5/27 2:20pm 243 5 G 10 68° 42% - - 44° 68.7° 44.7° - - -
5/27 2:10pm 200 6 G 11 68° 40% - - 43° 68.5° 44.7° - - -
5/27 2:00pm 212 7 G 10 68° 41% - - 43° 68.5° 44.7° - - -
5/27 1:50pm 209 6 G 10 68° 39% - - 42° 68.3° 44.7° - - -
5/27 1:40pm 204 6 G 10 67° 40% - - 42° 67.8° 44.7° - - -
5/27 1:30pm 192 7 G 12 66° 40% - - 41° 67.2° 44.7° - - -
5/27 1:20pm 216 5 G 10 67° 41% - - 42° 67.2° 44.7° - - -
5/27 1:10pm 192 6 G 13 66° 41% - - 42° 66.8° 44.7° - - -
5/27 1:00pm 209 5 G 10 65° 44% - - 43° 66.7° 44.7° - - -
5/27 12:50pm 179 5 G 10 66° 43% - - 42° 66.3° 44.7° - - -
5/27 12:40pm 202 4 G 11 65° 44% - - 43° 66.3° 44.7° - - -
5/27 12:30pm 184 5 G 9 64° 44% - - 42° 65° 44.7° - - -
5/27 12:20pm 177 6 G 10 64° 48% - - 44° 64.9° 44.7° - - -
5/27 12:10pm 185 5 G 10 63° 49% - - 44° 63.7° 44.7° - - -
5/27 12:00pm 185 5 G 10 63° 51% - - 44° 63.3° 44.7° - - -
5/27 11:50am 187 5 G 9 62° 52% - - 44° 62.2° 44.7° - - -
5/27 11:40am 191 5 G 10 61° 54% - - 44° 61.8° 44.7° - - -
5/27 11:30am 198 6 G 11 60° 56% - - 45° 61.1° 44.7° - - -
5/27 11:20am 226 6 G 12 60° 57% - - 45° 61° 44.7° - - -
5/27 11:10am 209 6 G 11 60° 56% - - 45° 61° 44.7° - - -
5/27 11:00am 186 7 G 12 60° 56% - - 44° 60.3° 44.7° - - -
5/27 10:50am 195 6 G 9 60° 57% - - 44° 60° 44.7° - - -
5/27 10:40am 181 6 G 9 59° 58% - - 44° 59.8° 44.7° - - -
5/27 10:30am 198 5 G 9 59° 60% - - 45° 59.8° 44.7° - - -
5/27 10:20am 231 3 G 7 58° 61% - - 45° 58.8° 44.7° - - -
5/27 10:10am 207 4 G 7 58° 62% - - 45° 58.5° 44.7° - - -
5/27 10:00am 215 4 G 8 57° 64% - - 45° 57.5° 44.7° - - -
5/27 9:50am 201 4 G 8 57° 64% - - 45° 57.5° 44.7° - - -
5/27 9:40am 176 3 G 6 56° 67% - - 45° 57.5° 44.7° - - -
5/27 9:30am 203 6 G 10 55° 68% - - 45° 56.7° 44.7° - - -
5/27 9:20am 168 4 G 7 56° 66% - - 45° 56.7° 44.7° - - -
5/27 9:10am 233 3 G 7 55° 68% - - 44° 55.2° 44.7° - - -
5/27 9:00am 226 3 G 7 54° 69% - - 44° 55.1° 44.7° - - -
5/27 8:50am 211 3 G 5 54° 71% - - 45° 54° 44.7° - - -
5/27 8:40am 195 4 G 6 53° 73% - - 45° 53.8° 44.7° - - -
5/27 8:30am 215 2 G 4 53° 74% - - 45° 53.4° 44.7° - - -
5/27 8:20am 213 2 G 5 52° 76% - - 45° 52.6° 44.7° - - -
5/27 8:10am 201 3 G 5 52° 78% - - 45° 52.5° 44.7° - - -
5/27 8:00am 205 3 G 5 51° 78% - - 45° 52.5° 44.7° - - -
5/27 7:50am 194 2 G 4 51° 80% - - 45° 52.5° 44.7° - - -
5/27 7:40am 201 2 G 3 50° 80% - - 44° 52.5° 44.7° - - -
5/27 7:30am 192 2 G 4 50° 80% - - 44° 52.5° 44.7° - - -
5/27 7:20am 188 2 G 4 52° 77% - - 44° 52.5° 44.7° - - -
5/27 7:10am 173 2 G 4 51° 78% - - 44° 51.6° 44.7° - - -
5/27 7:00am 103 1 G 3 50° 82% - - 44° 51.2° 44.7° - - -
5/27 6:50am 61 2 G 3 48° 84% - - 43° 49.9° 44.7° - - -
5/27 6:40am 51 2 G 3 48° 83% - - 43° 49.9° 44.7° - - -
5/27 6:30am 58 1 G 2 48° 86% - - 44° 49.9° 44.7° - - -
5/27 6:20am 56 1 G 2 47° 89% - - 44° 49.9° 44.7° - - -
5/27 6:10am 47 2 G 2 45° 92% - - 43° 49.9° 44.7° - - -
5/27 6:00am 35 1 G 2 45° 92% - - 43° 49.9° 44.8° - - -
5/27 5:50am 37 2 G 2 45° 92% - - 43° 49.9° 44.8° - - -
5/27 5:40am 178 1 G 2 46° 93% - - 44° 49.9° 44.8° - - -
5/27 5:30am 237 0 G 2 46° 93% - - 44° 49.9° 44.8° - - -
5/27 5:20am 338 0 G 2 46° 93% - - 44° 49.9° 44.8° - - -
5/27 5:10am 17 2 G 2 46° 92% - - 43° 49.9° 44.8° - - -
5/27 5:00am 19 2 G 2 46° 92% - - 44° 49.9° 44.8° - - -
5/27 4:50am 30 3 G 4 46° 92% - - 44° 49.9° 44.8° - - -
5/27 4:40am 27 3 G 4 45° 92% - - 43° 49.9° 44.8° - - -
5/27 4:30am 27 2 G 3 46° 92% - - 44° 49.9° 45.2° - - -
5/27 4:20am 24 2 G 4 46° 92% - - 43° 49.9° 45.2° - - -
5/27 4:10am 357 3 G 4 46° 92% - - 44° 49.9° 45.3° - - -
5/27 4:00am 2 3 G 4 46° 91% - - 44° 49.9° 45.8° - - -
5/27 3:50am 5 2 G 4 47° 89% - - 44° 49.9° 46.1° - - -
5/27 3:40am 53 4 G 7 47° 89% - - 44° 49.9° 46.9° - - -
5/27 3:30am 71 3 G 8 47° 89% - - 44° 49.9° 47° - - -
5/27 3:20am 52 3 G 5 47° 89% - - 44° 49.9° 47° - - -
5/27 3:10am 49 4 G 7 48° 88% - - 44° 49.9° 47.4° - - -
5/27 3:00am 64 3 G 7 48° 87% - - 44° 49.9° 47.7° - - -
5/27 2:50am 183 1 G 2 48° 87% - - 44° 49.9° 48° - - -
5/27 2:40am 88 2 G 4 48° 86% - - 44° 49.9° 48° - - -
5/27 2:30am 39 2 G 4 49° 86% - - 45° 49.9° 48.3° - - -
5/27 2:20am 348 2 G 4 48° 86% - - 45° 49.9° 48.3° - - -
5/27 2:10am 230 3 G 4 49° 86% - - 45° 49.9° 48.4° - - -
5/27 2:00am 140 2 G 3 49° 86% - - 45° 49.9° 48.5° - - -
5/27 1:50am 101 1 G 3 49° 86% - - 45° 49.9° 48.5° - - -
5/27 1:40am 205 1 G 3 49° 88% - - 46° 49.9° 48.5° - - -
5/27 1:30am 222 2 G 5 49° 87% - - 45° 49.9° 48.7° - - -
5/27 1:20am 226 2 G 3 49° 89% - - 46° 49.9° 48.9° - - -
5/27 1:10am 205 3 G 6 49° 87% - - 45° 49.9° 48.9° - - -
5/27 1:00am 214 2 G 3 49° 86% - - 45° 49.9° 49.1° - - -
5/27 12:50am 256 2 G 3 49° 86% - - 45° 49.9° 49.1° - - -
5/27 12:40am 214 2 G 3 49° 87% - - 46° 49.9° 49.1° - - -
5/27 12:30am 152 1 G 2 49° 85% - - 45° 49.9° 49.1° - - -
5/27 12:20am 126 2 G 4 49° 86% - - 45° 49.9° 49.2° - - -
5/27 12:10am 222 2 G 3 50° 86% - - 46° 49.9° 49.5° - - -
5/27 12:00am 160 1 G 3 50° 87% - - 46° 62.6° 45.3° - - -
5/26 11:50pm 188 1 G 2 50° 87% - - 46° 62.6° 45.3° - - -
5/26 11:40pm 188 2 G 3 50° 88% - - 46° 62.6° 45.3° - - -
5/26 11:30pm 186 2 G 3 50° 90% - - 47° 62.6° 45.3° - - -
5/26 11:20pm 194 2 G 3 50° 88% - - 46° 62.6° 45.3° - - -
5/26 11:10pm 147 1 G 4 50° 87% - - 46° 62.6° 45.3° - - -
5/26 11:00pm 209 2 G 3 50° 89% - - 47° 62.6° 45.3° - - -
5/26 10:50pm 192 1 G 3 50° 89% - - 47° 62.6° 45.3° - - -
5/26 10:40pm 202 2 G 3 50° 89% - - 47° 62.6° 45.3° - - -
5/26 10:30pm 184 1 G 4 50° 88% - - 47° 62.6° 45.3° - - -
5/26 10:20pm 196 1 G 2 50° 90% - - 47° 62.6° 45.3° - - -
5/26 10:10pm 203 1 G 3 50° 90% - - 47° 62.6° 45.3° - - -
5/26 10:00pm 192 2 G 4 50° 90% - - 47° 62.6° 45.3° - - -
5/26 9:50pm 210 2 G 3 50° 90% - - 47° 62.6° 45.3° - - -
5/26 9:40pm 202 2 G 3 50° 90% - - 47° 62.6° 45.3° - - -
5/26 9:30pm 179 2 G 3 50° 90% - - 47° 62.6° 45.3° - - -
5/26 9:20pm 165 2 G 4 50° 91% - - 47° 62.6° 45.3° - - -
5/26 9:10pm 183 1 G 2 50° 92% - - 47° 62.6° 45.3° - - -
5/26 9:00pm 170 2 G 4 49° 92% - - 47° 62.6° 45.3° - - -
5/26 8:50pm 196 2 G 4 49° 92% - - 47° 62.6° 45.3° - - -
5/26 8:40pm 190 3 G 4 49° 92% - - 47° 62.6° 45.3° - - -
5/26 8:30pm 178 4 G 5 49° 92% - - 47° 62.6° 45.3° - - -
5/26 8:20pm 187 3 G 5 49° 92% - - 47° 62.6° 45.3° - - -
5/26 8:10pm 193 5 G 6 50° 91% - - 47° 62.6° 45.3° - - -
5/26 8:00pm 190 4 G 6 50° 89% - - 47° 62.6° 45.3° - - -
5/26 7:50pm 203 4 G 6 51° 88% - - 47° 62.6° 45.3° - - -
5/26 7:40pm 191 5 G 7 52° 85% - - 47° 62.6° 45.3° - - -
5/26 7:30pm 204 5 G 7 53° 81% - - 47° 62.6° 45.3° - - -
5/26 7:20pm 211 5 G 7 53° 79% - - 47° 62.6° 45.3° - - -
5/26 7:10pm 203 7 G 10 53° 78% - - 46° 62.6° 45.3° - - -
5/26 7:00pm 200 7 G 10 54° 75% - - 46° 62.6° 45.3° - - -
5/26 6:50pm 203 8 G 12 55° 72% - - 46° 62.6° 45.3° - - -
5/26 6:40pm 200 8 G 11 56° 70% - - 46° 62.6° 45.3° - - -
5/26 6:30pm 212 8 G 12 57° 68% - - 46° 62.6° 45.3° - - -
5/26 6:20pm 209 9 G 14 57° 68% - - 46° 62.6° 45.3° - - -
5/26 6:10pm 207 9 G 14 57° 66% - - 46° 62.6° 45.3° - - -
5/26 6:00pm 216 8 G 12 58° 64% - - 46° 62.6° 45.3° - - -